Time;durP1;ratioP1;P1;durP2;ratioP2;P2;SDS_P1;SDS_P2;PMS_P1;PMS_P2;Temp;Humidity;BMP_temperature;BMP_pressure;BME280_temperature;BME280_humidity;BME280_pressure;Samples;Min_cycle;Max_cycle;Signal;HPM_P1;HPM_P2
2022/03/02 00:01:42;;;;;;;26.70;19.87;;;;;;;3.96;52.98;94974.91;5081532;28;20466;-74
2022/03/02 00:04:08;;;;;;;30.33;22.43;;;;;;;4.27;51.80;94974.59;5103468;28;20594;-73
2022/03/02 00:06:33;;;;;;;26.97;21.27;;;;;;;4.37;52.08;94970.16;5106004;28;20193;-74
2022/03/02 00:08:59;;;;;;;31.70;20.20;;;;;;;4.48;51.60;94971.72;5104921;28;20459;-74
2022/03/02 00:11:24;;;;;;;28.63;21.47;;;;;;;4.44;51.84;94966.00;5105116;28;20228;-74
2022/03/02 00:13:50;;;;;;;24.93;19.90;;;;;;;4.48;51.40;94964.75;5105357;28;20192;-73
2022/03/02 00:16:17;;;;;;;26.10;18.93;;;;;;;4.01;52.41;94964.13;5105912;28;20189;-74
2022/03/02 00:18:43;;;;;;;23.00;18.47;;;;;;;4.15;52.42;94955.03;5105728;28;20200;-73
2022/03/02 00:21:09;;;;;;;22.70;18.70;;;;;;;3.81;53.16;94960.81;5105532;28;20467;-73
2022/03/02 00:23:35;;;;;;;27.80;19.90;;;;;;;3.47;54.34;94956.22;5104055;28;20470;-73
2022/03/02 00:26:01;;;;;;;22.10;17.73;;;;;;;3.69;53.50;94955.03;5104809;28;20455;-74
2022/03/02 00:28:27;;;;;;;25.57;16.40;;;;;;;3.85;53.34;94954.41;5105627;28;20207;-73
2022/03/02 00:30:53;;;;;;;20.20;16.13;;;;;;;3.80;52.54;94947.06;5105418;28;21051;-73
2022/03/02 00:33:18;;;;;;;18.50;15.57;;;;;;;3.88;52.80;94954.13;5105507;28;20192;-73
2022/03/02 00:35:44;;;;;;;19.63;14.60;;;;;;;3.69;53.02;94940.31;5104264;28;20185;-73
2022/03/02 00:38:10;;;;;;;23.23;15.33;;;;;;;3.80;52.56;94941.09;5105090;28;20189;-73
2022/03/02 00:40:40;;;;;;;23.77;17.30;;;;;;;3.86;52.70;94941.31;5087223;28;20197;-74
2022/03/02 00:43:06;;;;;;;22.93;18.07;;;;;;;3.81;53.37;94933.16;5105689;28;20415;-73
2022/03/02 00:45:32;;;;;;;22.77;17.73;;;;;;;3.76;53.87;94934.59;5105085;28;20431;-73
2022/03/02 00:48:02;;;;;;;22.20;17.60;;;;;;;3.76;54.02;94926.81;5105010;28;20473;-74
2022/03/02 00:50:28;;;;;;;24.33;18.83;;;;;;;3.80;53.82;94925.56;5092615;28;20415;-73
2022/03/02 00:52:54;;;;;;;28.00;19.37;;;;;;;3.78;53.70;94917.94;5105191;28;21001;-74
2022/03/02 00:55:20;;;;;;;22.93;17.80;;;;;;;3.78;53.77;94909.38;5104559;28;20411;-73
2022/03/02 00:57:45;;;;;;;22.97;19.07;;;;;;;3.77;54.30;94911.13;5104102;28;20227;-73
2022/03/02 01:00:11;;;;;;;28.77;18.17;;;;;;;3.87;54.10;94905.88;5104197;28;20192;-73
2022/03/02 01:02:37;;;;;;;26.23;18.70;;;;;;;3.63;54.46;94903.88;5092545;28;20183;-73
2022/03/02 01:05:04;;;;;;;29.53;20.80;;;;;;;3.52;55.01;94904.88;5101169;28;20433;-74
2022/03/02 01:07:30;;;;;;;26.67;20.57;;;;;;;3.70;54.81;94897.16;5103229;28;20185;-74
2022/03/02 01:09:55;;;;;;;26.60;21.20;;;;;;;3.71;54.53;94899.56;5104081;28;20435;-73
2022/03/02 01:12:21;;;;;;;31.50;21.30;;;;;;;3.69;54.41;94900.69;5101532;28;20177;-73
2022/03/02 01:14:46;;;;;;;28.33;19.50;;;;;;;3.54;55.41;94897.78;5105117;28;20500;-74
2022/03/02 01:17:12;;;;;;;32.00;22.83;;;;;;;3.61;54.50;94891.06;5105172;28;20184;-74
2022/03/02 01:19:39;;;;;;;30.00;19.20;;;;;;;3.67;54.49;94887.09;5104696;28;20196;-73
2022/03/02 01:22:05;;;;;;;28.83;21.57;;;;;;;3.50;54.90;94896.44;5104545;28;20759;-73
2022/03/02 01:24:31;;;;;;;34.07;22.40;;;;;;;3.53;54.75;94893.56;5105010;28;20443;-73
2022/03/02 01:26:56;;;;;;;27.13;18.20;;;;;;;3.32;55.40;94886.06;5104712;28;20465;-73
2022/03/02 01:29:23;;;;;;;30.20;21.70;;;;;;;3.18;56.16;94889.91;5104399;28;20197;-73
2022/03/02 01:31:48;;;;;;;24.90;18.10;;;;;;;3.09;56.06;94880.44;5104611;28;20640;-73
2022/03/02 01:34:14;;;;;;;28.63;22.03;;;;;;;2.97;56.22;94886.75;5104820;28;20441;-73
2022/03/02 01:36:39;;;;;;;28.03;21.27;;;;;;;2.76;56.81;94890.34;5105086;28;20181;-73
2022/03/02 01:39:05;;;;;;;27.67;18.80;;;;;;;2.85;56.26;94883.53;5104774;28;20185;-74
2022/03/02 01:41:30;;;;;;;27.07;20.40;;;;;;;2.62;56.96;94883.00;5102203;28;20258;-74
2022/03/02 01:43:56;;;;;;;29.23;20.93;;;;;;;2.85;56.95;94881.75;5094368;28;20246;-73
2022/03/02 01:46:22;;;;;;;26.87;18.40;;;;;;;2.74;57.68;94874.97;5104877;28;20207;-74
2022/03/02 01:48:48;;;;;;;29.40;19.60;;;;;;;3.02;56.62;94871.63;5104820;28;20260;-74
2022/03/02 01:51:14;;;;;;;23.63;17.13;;;;;;;2.66;57.55;94876.66;5098907;28;20428;-74
2022/03/02 01:53:41;;;;;;;13.07;10.70;;;;;;;2.14;57.63;94870.06;5104939;28;20457;-73
2022/03/02 01:56:07;;;;;;;21.80;15.07;;;;;;;2.50;56.96;94870.28;5104431;28;20415;-73
2022/03/02 01:58:33;;;;;;;20.15;13.93;;;;;;;2.44;57.21;94865.66;5120337;28;20439;-73
2022/03/02 02:01:00;;;;;;;18.13;13.40;;;;;;;2.29;57.47;94867.03;5104912;28;20204;-73
2022/03/02 02:03:26;;;;;;;22.10;11.98;;;;;;;2.00;57.36;94867.06;5104503;28;20427;-73
2022/03/02 02:05:52;;;;;;;16.70;10.73;;;;;;;2.34;56.43;94860.50;5104708;28;20644;-73
2022/03/02 02:08:18;;;;;;;17.87;10.87;;;;;;;2.07;56.89;94855.25;5104625;28;20207;-73
2022/03/02 02:10:43;;;;;;;15.73;11.00;;;;;;;1.82;56.67;94859.19;5103650;28;20177;-73
2022/03/02 02:13:09;;;;;;;16.23;12.47;;;;;;;2.11;57.00;94849.69;5103593;28;20196;-73
2022/03/02 02:15:35;;;;;;;12.80;11.50;;;;;;;2.05;56.62;94854.56;5104472;28;20226;-73
2022/03/02 02:18:01;;;;;;;17.13;11.50;;;;;;;2.35;55.88;94845.81;5104073;28;20423;-73
2022/03/02 02:20:27;;;;;;;16.90;11.63;;;;;;;2.22;56.01;94855.63;5104069;28;20637;-73
2022/03/02 02:22:53;;;;;;;14.53;11.70;;;;;;;2.42;55.71;94846.09;5103682;28;20473;-73
2022/03/02 02:25:19;;;;;;;13.47;11.70;;;;;;;2.50;55.58;94843.63;5104015;28;20199;-73
2022/03/02 02:27:47;;;;;;;17.07;13.47;;;;;;;2.39;56.36;94847.22;5086033;28;20934;-73
2022/03/02 02:30:14;;;;;;;16.00;12.30;;;;;;;2.48;55.62;94846.34;5104490;28;20437;-73
2022/03/02 02:32:41;;;;;;;18.70;13.80;;;;;;;2.25;56.46;94852.78;5104339;28;20185;-74
2022/03/02 02:35:09;;;;;;;17.75;12.20;;;;;;;2.60;55.53;94844.44;5096088;28;20490;-73
2022/03/02 02:37:35;;;;;;;13.50;11.37;;;;;;;2.63;55.81;94848.50;5103204;28;20181;-73
2022/03/02 02:40:09;;;;;;;12.30;10.27;;;;;;;2.10;56.26;94848.03;5104262;28;20423;-73
2022/03/02 02:42:36;;;;;;;12.55;9.70;;;;;;;1.95;56.38;94845.09;5104371;28;20421;-73
2022/03/02 02:45:04;;;;;;;14.73;10.17;;;;;;;2.15;55.82;94843.28;5097668;28;20177;-74
2022/03/02 02:47:29;;;;;;;10.37;9.20;;;;;;;2.17;55.60;94850.09;5103652;28;20445;-73
2022/03/02 02:49:55;;;;;;;7.63;6.90;;;;;;;2.03;55.53;94846.13;5104806;28;20961;-73
2022/03/02 02:52:20;;;;;;;9.93;8.90;;;;;;;2.10;55.19;94842.88;5100636;28;20205;-73
2022/03/02 02:54:48;;;;;;;12.27;9.93;;;;;;;2.03;55.31;94846.97;5100072;28;20205;-73
2022/03/02 02:57:13;;;;;;;9.90;8.95;;;;;;;1.80;55.16;94840.44;5093483;28;20185;-73
2022/03/02 02:59:39;;;;;;;8.10;6.93;;;;;;;1.27;55.55;94839.03;5085521;28;20533;-73
2022/03/02 03:02:04;;;;;;;11.17;7.20;;;;;;;1.38;55.16;94844.06;5107093;28;20212;-73
2022/03/02 03:04:30;;;;;;;14.23;7.83;;;;;;;1.36;55.58;94846.78;5106772;28;20272;-74
2022/03/02 03:06:56;;;;;;;5.87;5.37;;;;;;;1.39;55.24;94837.97;5107821;28;20181;-73
2022/03/02 03:09:21;;;;;;;9.83;7.90;;;;;;;1.68;54.96;94845.72;5107484;28;20188;-74
2022/03/02 03:11:47;;;;;;;10.50;7.80;;;;;;;1.58;55.36;94842.34;5106277;28;20177;-73
2022/03/02 03:14:14;;;;;;;5.70;5.20;;;;;;;1.33;55.60;94839.31;5088904;28;20180;-74
2022/03/02 03:16:41;;;;;;;10.82;8.05;;;;;;;1.89;54.48;94844.78;5093514;28;20184;-73
2022/03/02 03:19:07;;;;;;;10.82;7.97;;;;;;;1.82;55.05;94838.53;5107117;28;20185;-73
2022/03/02 03:21:33;;;;;;;8.17;7.33;;;;;;;1.19;55.86;94842.25;5107364;28;20197;-73
2022/03/02 03:23:59;;;;;;;11.75;8.00;;;;;;;1.70;55.45;94840.44;5089113;28;20961;-73
2022/03/02 03:26:24;;;;;;;10.37;8.50;;;;;;;1.80;55.04;94840.44;5106795;28;20259;-73
2022/03/02 03:28:50;;;;;;;8.60;7.70;;;;;;;1.71;54.81;94842.91;5087949;28;20257;-73
2022/03/02 03:31:16;;;;;;;10.13;8.70;;;;;;;1.50;56.18;94834.44;5088688;28;20292;-74
2022/03/02 03:33:41;;;;;;;11.57;8.80;;;;;;;1.81;55.07;94837.75;5107554;28;20423;-74
2022/03/02 03:36:07;;;;;;;8.40;7.67;;;;;;;2.00;55.34;94842.06;5089037;28;20177;-73
2022/03/02 03:38:33;;;;;;;11.00;8.82;;;;;;;1.72;55.88;94834.19;5107037;28;20214;-73
2022/03/02 03:40:59;;;;;;;6.47;5.85;;;;;;;1.43;56.60;94836.75;5106519;28;20361;-74
2022/03/02 03:43:25;;;;;;;8.23;6.60;;;;;;;1.37;56.60;94845.03;5106535;28;20192;-73
2022/03/02 03:45:51;;;;;;;6.73;6.10;;;;;;;1.40;57.39;94839.59;5098267;28;20210;-73
2022/03/02 03:48:16;;;;;;;10.30;7.77;;;;;;;2.00;55.78;94831.75;5106937;28;20276;-74
2022/03/02 03:50:42;;;;;;;8.40;7.57;;;;;;;1.73;55.34;94825.50;5106646;28;20462;-74
2022/03/02 03:53:08;;;;;;;12.07;8.40;;;;;;;2.18;55.69;94824.13;5106393;28;20426;-73
2022/03/02 03:55:34;;;;;;;10.90;8.45;;;;;;;2.48;54.33;94822.28;5106680;28;20173;-74
2022/03/02 03:58:00;;;;;;;9.27;7.20;;;;;;;2.37;55.21;94820.69;5106223;28;20187;-74
2022/03/02 04:00:25;;;;;;;9.37;8.10;;;;;;;2.24;55.37;94827.91;5106383;28;20196;-74
2022/03/02 04:02:51;;;;;;;9.50;7.60;;;;;;;2.11;56.39;94829.03;5106479;28;20177;-74
2022/03/02 04:05:16;;;;;;;7.30;5.83;;;;;;;1.89;56.45;94829.31;5104875;28;20264;-74
2022/03/02 04:07:42;;;;;;;6.63;5.13;;;;;;;2.01;55.93;94822.25;5088213;28;20205;-73
2022/03/02 04:10:08;;;;;;;11.60;9.77;;;;;;;2.46;55.17;94832.75;5098095;28;20189;-73
2022/03/02 04:12:35;;;;;;;9.07;6.90;;;;;;;2.75;54.30;94824.09;5105348;28;20203;-74
2022/03/02 04:15:03;;;;;;;8.43;7.32;;;;;;;2.69;55.23;94828.09;5088368;28;20181;-73
2022/03/02 04:17:28;;;;;;;11.13;8.53;;;;;;;3.16;53.80;94828.97;5106339;28;20659;-73
2022/03/02 04:19:53;;;;;;;11.63;7.40;;;;;;;2.91;54.38;94821.72;5089149;28;20431;-74
2022/03/02 04:22:19;;;;;;;9.83;8.53;;;;;;;3.10;54.59;94820.03;5105848;28;20598;-74
2022/03/02 04:24:46;;;;;;;15.73;9.43;;;;;;;2.86;55.01;94825.69;5106386;28;20185;-74
2022/03/02 04:27:12;;;;;;;12.20;9.13;;;;;;;3.28;54.29;94818.31;5105214;28;20209;-73
2022/03/02 04:29:37;;;;;;;9.70;8.00;;;;;;;2.98;55.82;94823.75;5106234;28;20464;-74
2022/03/02 04:32:03;;;;;;;9.57;8.67;;;;;;;3.06;55.53;94821.28;5105926;28;20189;-74
2022/03/02 04:34:29;;;;;;;15.55;9.52;;;;;;;2.58;56.30;94824.84;5106063;28;20193;-74
2022/03/02 04:36:54;;;;;;;10.80;9.20;;;;;;;2.99;56.39;94822.81;5105752;28;20187;-73
2022/03/02 04:39:20;;;;;;;10.30;8.97;;;;;;;3.04;56.11;94825.78;5091490;28;20189;-74
2022/03/02 04:41:45;;;;;;;10.67;9.20;;;;;;;3.37;54.37;94819.19;5105580;28;20231;-73
2022/03/02 04:44:11;;;;;;;8.60;7.40;;;;;;;3.34;55.06;94822.06;5105580;28;20208;-74
2022/03/02 04:46:36;;;;;;;9.00;8.20;;;;;;;3.30;54.48;94816.38;5100203;28;20181;-73
2022/03/02 04:49:10;;;;;;;11.00;8.67;;;;;;;3.02;55.46;94817.34;5105920;28;20192;-74
2022/03/02 04:51:39;;;;;;;10.73;8.70;;;;;;;3.38;54.69;94815.66;5101310;28;20528;-73
2022/03/02 04:54:05;;;;;;;9.43;8.43;;;;;;;3.78;54.09;94819.59;5105255;28;20192;-73
2022/03/02 04:56:30;;;;;;;8.70;7.77;;;;;;;3.52;54.46;94822.09;5104476;28;20252;-73
2022/03/02 04:58:56;;;;;;;9.77;8.77;;;;;;;3.13;55.72;94820.56;5104867;28;20812;-74
2022/03/02 05:01:22;;;;;;;10.27;6.80;;;;;;;3.77;54.11;94819.72;5104328;28;20242;-74
2022/03/02 05:03:47;;;;;;;8.00;6.97;;;;;;;3.18;55.56;94814.94;5104898;28;20199;-73
2022/03/02 05:06:13;;;;;;;12.87;8.30;;;;;;;3.02;56.36;94812.19;5091117;28;20216;-74
2022/03/02 05:08:38;;;;;;;10.50;6.73;;;;;;;3.60;55.06;94811.00;5072533;28;20205;-74
2022/03/02 05:11:04;;;;;;;11.73;9.10;;;;;;;2.97;57.42;94806.63;5104935;28;20181;-73
2022/03/02 05:13:30;;;;;;;10.63;9.27;;;;;;;3.18;56.66;94816.72;5086377;28;20187;-73
2022/03/02 05:15:55;;;;;;;9.53;8.33;;;;;;;2.74;58.40;94809.56;5085940;28;20674;-74
2022/03/02 05:18:21;;;;;;;10.97;9.70;;;;;;;3.02;57.87;94812.19;5104633;28;20193;-73
2022/03/02 05:20:47;;;;;;;10.23;8.73;;;;;;;3.14;57.37;94803.25;5104609;28;20204;-73
2022/03/02 05:23:12;;;;;;;9.17;8.27;;;;;;;2.92;58.55;94812.19;5103281;28;20214;-74
2022/03/02 05:25:38;;;;;;;9.67;8.17;;;;;;;2.76;58.96;94812.03;5103818;28;20463;-73
2022/03/02 05:28:03;;;;;;;10.27;8.83;;;;;;;2.89;58.97;94810.72;5104046;28;20533;-73
2022/03/02 05:30:29;;;;;;;11.27;9.50;;;;;;;3.12;58.86;94808.56;5104420;28;20192;-73
2022/03/02 05:32:54;;;;;;;10.53;9.43;;;;;;;3.41;57.71;94817.13;5085409;28;20453;-75
2022/03/02 05:35:20;;;;;;;11.00;9.50;;;;;;;3.52;57.98;94814.31;5104205;28;20184;-74
2022/03/02 05:37:45;;;;;;;11.70;9.27;;;;;;;2.76;59.78;94818.00;5104560;28;20187;-74
2022/03/02 05:40:14;;;;;;;12.77;9.10;;;;;;;3.24;58.29;94811.75;5103967;28;20201;-74
2022/03/02 05:42:40;;;;;;;13.13;9.75;;;;;;;3.04;58.44;94818.03;5084937;28;20320;-74
2022/03/02 05:45:07;;;;;;;11.07;9.03;;;;;;;3.09;59.53;94813.22;5085815;28;20221;-74
2022/03/02 05:47:33;;;;;;;10.27;9.17;;;;;;;3.44;57.63;94822.81;5104368;28;20173;-74
2022/03/02 05:49:58;;;;;;;12.37;9.33;;;;;;;3.59;57.28;94820.53;5104166;28;20446;-74
2022/03/02 05:52:24;;;;;;;10.70;9.27;;;;;;;3.42;58.17;94813.59;5104032;28;20411;-73
2022/03/02 05:54:49;;;;;;;10.80;9.27;;;;;;;3.15;58.71;94814.41;5086053;28;20196;-74
2022/03/02 05:57:15;;;;;;;11.80;10.57;;;;;;;3.32;58.36;94814.47;5104182;28;20200;-74
2022/03/02 05:59:40;;;;;;;11.90;10.27;;;;;;;3.44;58.07;94814.25;5085608;28;20206;-74
2022/03/02 06:02:06;;;;;;;11.50;10.33;;;;;;;4.08;56.12;94815.81;5103788;28;20197;-73
2022/03/02 06:04:32;;;;;;;11.03;8.60;;;;;;;3.08;58.42;94812.41;5103017;28;20193;-74
2022/03/02 06:06:57;;;;;;;12.07;10.03;;;;;;;3.22;58.44;94818.84;5096552;28;20181;-74
2022/03/02 06:09:23;;;;;;;16.00;11.00;;;;;;;3.63;57.16;94821.88;5104601;28;20250;-74
2022/03/02 06:11:48;;;;;;;6.30;5.67;;;;;;;3.47;57.97;94827.72;5120038;28;20196;-74
2022/03/02 06:14:14;;;;;;;6.83;5.87;;;;;;;3.37;57.46;94826.13;5103301;28;20189;-74
2022/03/02 06:16:40;;;;;;;12.37;10.10;;;;;;;3.30;57.81;94825.88;5103682;28;20188;-74
2022/03/02 06:19:06;;;;;;;13.97;11.17;;;;;;;3.57;57.77;94827.66;5104607;28;20260;-73
2022/03/02 06:21:32;;;;;;;16.27;12.03;;;;;;;4.10;55.88;94831.19;5104598;28;20200;-74
2022/03/02 06:23:58;;;;;;;11.47;9.87;;;;;;;3.94;56.80;94834.44;5104065;28;20419;-74
2022/03/02 06:26:25;;;;;;;14.73;11.80;;;;;;;4.00;56.70;94827.84;5100883;28;20703;-74
2022/03/02 06:28:51;;;;;;;14.73;11.50;;;;;;;3.85;56.57;94824.97;5101165;28;20313;-74
2022/03/02 06:31:18;;;;;;;14.67;11.47;;;;;;;4.08;56.02;94818.41;5094030;28;20412;-74
2022/03/02 06:33:44;;;;;;;13.03;10.80;;;;;;;3.82;57.23;94817.53;5104262;28;20445;-74
2022/03/02 06:36:09;;;;;;;14.37;9.27;;;;;;;3.77;57.77;94819.72;5097866;28;20427;-74
2022/03/02 06:38:35;;;;;;;21.40;11.37;;;;;;;3.84;56.56;94818.19;5089998;28;20505;-74
2022/03/02 06:41:03;;;;;;;29.23;12.93;;;;;;;4.15;55.95;94807.44;5107616;28;20253;-73
2022/03/02 06:43:33;;;;;;;17.23;11.50;;;;;;;4.18;55.62;94807.13;5120574;28;20671;-73
2022/03/02 06:46:18;;;;;;;24.13;10.57;;;;;;;3.98;56.53;94809.06;5113397;28;20475;-74
2022/03/02 06:48:53;;;;;;;18.20;11.50;;;;;;;4.48;55.01;94805.88;5107954;28;20476;-74
2022/03/02 06:51:24;;;;;;;15.60;10.67;;;;;;;4.67;53.95;94808.25;5107743;28;20520;-74
2022/03/02 06:53:51;;;;;;;13.73;12.33;;;;;;;4.34;55.38;94807.22;5089092;28;20442;-74
2022/03/02 06:56:19;;;;;;;14.30;10.13;;;;;;;4.24;55.58;94809.13;5107601;28;20429;-74
2022/03/02 06:58:52;;;;;;;14.53;11.87;;;;;;;3.94;56.37;94805.97;5107946;28;20435;-74
2022/03/02 07:01:25;;;;;;;16.20;8.70;;;;;;;3.82;56.29;94809.75;5109281;28;20451;-74
2022/03/02 07:03:57;;;;;;;27.57;12.63;;;;;;;4.13;55.81;94796.41;5088512;28;20438;-73
2022/03/02 07:06:22;;;;;;;15.30;10.93;;;;;;;3.89;56.20;94803.84;5106314;28;20422;-74
2022/03/02 07:08:48;;;;;;;18.40;10.53;;;;;;;4.44;54.88;94796.75;5107461;28;20464;-73
2022/03/02 07:11:16;;;;;;;12.87;10.07;;;;;;;4.65;53.72;94801.59;5106395;28;20590;-74
2022/03/02 07:13:44;;;;;;;15.50;11.13;;;;;;;4.11;54.77;94788.78;5106764;28;20438;-74
2022/03/02 07:16:14;;;;;;;12.10;7.70;;;;;;;4.34;54.42;94783.91;5107356;28;20482;-74
2022/03/02 07:18:40;;;;;;;18.10;10.43;;;;;;;4.76;53.36;94779.78;5106757;28;20437;-74
2022/03/02 07:21:10;;;;;;;13.43;11.63;;;;;;;4.69;53.74;94782.19;5107218;28;20478;-74
2022/03/02 07:23:47;;;;;;;13.67;11.50;;;;;;;4.71;53.78;94779.44;5122079;28;20538;-73
2022/03/02 07:26:33;;;;;;;13.37;8.17;;;;;;;4.20;55.24;94784.50;5106291;28;20566;-74
2022/03/02 07:29:00;;;;;;;25.33;10.50;;;;;;;4.61;54.05;94779.53;5106584;28;20430;-74
2022/03/02 07:31:26;;;;;;;10.83;9.60;;;;;;;4.28;54.91;94774.97;5106758;28;20422;-74
2022/03/02 07:33:53;;;;;;;25.07;12.47;;;;;;;4.69;54.17;94777.00;5106267;28;20435;-73
2022/03/02 07:36:20;;;;;;;9.83;6.77;;;;;;;4.49;53.75;94769.44;5102383;28;20423;-74
2022/03/02 07:38:46;;;;;;;40.67;13.70;;;;;;;4.54;53.92;94768.19;5106598;28;20431;-74
2022/03/02 07:41:12;;;;;;;13.73;9.07;;;;;;;4.02;54.94;94763.78;5104988;28;20462;-74
2022/03/02 07:43:39;;;;;;;24.97;12.00;;;;;;;4.35;55.05;94767.41;5104128;28;20439;-73
2022/03/02 07:46:11;;;;;;;21.53;13.33;;;;;;;4.50;54.34;94752.94;5105680;28;20667;-74
2022/03/02 07:48:38;;;;;;;10.60;7.23;;;;;;;4.14;54.85;94764.38;5105742;28;20431;-73
2022/03/02 07:51:06;;;;;;;29.93;14.30;;;;;;;3.94;56.87;94767.13;5105611;28;20453;-74
2022/03/02 07:53:39;;;;;;;20.90;12.90;;;;;;;4.42;54.24;94755.50;5105575;28;20427;-74
2022/03/02 07:56:07;;;;;;;16.23;10.60;;;;;;;4.36;54.43;94768.22;5105465;28;20416;-74
2022/03/02 07:58:33;;;;;;;16.47;11.87;;;;;;;3.74;56.56;94773.44;5105838;28;20461;-74
2022/03/02 08:01:00;;;;;;;11.23;8.07;;;;;;;4.17;55.40;94767.44;5105346;28;20469;-74
2022/03/02 08:03:27;;;;;;;19.67;13.23;;;;;;;4.19;55.02;94759.53;5104647;28;20458;-73
2022/03/02 08:05:59;;;;;;;15.80;11.87;;;;;;;4.49;54.52;94771.22;5104558;28;20869;-74
2022/03/02 08:08:25;;;;;;;19.33;13.20;;;;;;;4.35;54.58;94764.03;5103023;28;20459;-74
2022/03/02 08:10:52;;;;;;;9.43;8.33;;;;;;;4.23;54.85;94761.69;5102963;28;20419;-74
2022/03/02 08:13:18;;;;;;;15.83;12.47;;;;;;;4.44;54.88;94763.09;5102172;28;20975;-73
2022/03/02 08:15:44;;;;;;;14.97;11.60;;;;;;;4.18;55.51;94756.16;5105457;28;20490;-74
2022/03/02 08:18:10;;;;;;;18.30;12.43;;;;;;;3.97;55.95;94756.50;5087104;28;20200;-74
2022/03/02 08:20:45;;;;;;;15.70;12.87;;;;;;;4.46;54.28;94761.97;5085140;28;20566;-73
2022/03/02 08:23:11;;;;;;;18.53;13.40;;;;;;;4.60;54.95;94763.19;5104690;28;20461;-74
2022/03/02 08:25:36;;;;;;;23.33;14.90;;;;;;;5.02;53.67;94761.56;5104734;28;20494;-74
2022/03/02 08:28:05;;;;;;;37.00;14.97;;;;;;;4.14;55.67;94761.78;5103047;28;20588;-74
2022/03/02 08:30:33;;;;;;;23.53;14.00;;;;;;;5.10;53.91;94756.41;5105508;28;20408;-74
2022/03/02 08:33:00;;;;;;;20.60;14.57;;;;;;;5.18;53.55;94753.00;5105771;28;20468;-74
2022/03/02 08:35:30;;;;;;;21.47;15.10;;;;;;;5.47;52.48;94752.59;5105586;28;20415;-74
2022/03/02 08:37:56;;;;;;;29.47;12.67;;;;;;;4.35;55.36;94746.69;5103167;28;20422;-74
2022/03/02 08:40:21;;;;;;;15.57;10.87;;;;;;;4.33;54.74;94740.84;5103922;28;20442;-74
2022/03/02 08:42:49;;;;;;;14.33;10.90;;;;;;;4.69;54.16;94738.13;5105032;28;20264;-73
2022/03/02 08:45:14;;;;;;;29.20;14.83;;;;;;;4.96;53.91;94736.28;5105217;28;20177;-73
2022/03/02 08:47:40;;;;;;;21.73;14.40;;;;;;;5.08;52.98;94732.41;5105565;28;20487;-74
2022/03/02 08:50:07;;;;;;;16.50;11.43;;;;;;;4.92;53.66;94735.78;5087128;28;20223;-74
2022/03/02 08:52:33;;;;;;;18.80;12.20;;;;;;;4.81;53.80;94723.91;5086414;28;20238;-74
2022/03/02 08:55:05;;;;;;;21.57;13.67;;;;;;;5.18;53.42;94730.50;5104667;28;20442;-73
2022/03/02 08:57:34;;;;;;;21.00;14.17;;;;;;;5.77;51.88;94724.41;5104541;28;20442;-74
2022/03/02 09:00:00;;;;;;;13.73;10.60;;;;;;;5.58;51.83;94713.38;5086556;28;20427;-74
2022/03/02 09:02:29;;;;;;;22.20;13.80;;;;;;;6.04;50.96;94724.09;5104798;28;20461;-73
2022/03/02 09:04:59;;;;;;;14.60;10.47;;;;;;;5.13;52.30;94711.19;5105312;28;20449;-74
2022/03/02 09:07:24;;;;;;;11.23;5.80;;;;;;;4.70;53.57;94706.03;5104991;28;20418;-74
2022/03/02 09:09:50;;;;;;;18.33;11.70;;;;;;;4.15;55.61;94709.03;5105214;28;20431;-74
2022/03/02 09:12:16;;;;;;;14.57;11.23;;;;;;;4.75;53.16;94703.78;5104631;28;20179;-74
2022/03/02 09:14:42;;;;;;;12.00;7.07;;;;;;;4.60;53.67;94702.78;5104557;28;20260;-73
2022/03/02 09:17:08;;;;;;;20.73;13.03;;;;;;;5.38;52.56;94704.25;5104932;28;20185;-74
2022/03/02 09:19:35;;;;;;;21.23;12.13;;;;;;;5.15;51.91;94699.69;5105088;28;20748;-74
2022/03/02 09:22:03;;;;;;;19.70;12.30;;;;;;;6.02;50.46;94697.47;5101488;28;20511;-74
2022/03/02 09:24:30;;;;;;;29.80;13.83;;;;;;;6.08;50.49;94695.19;5098620;28;20799;-74
2022/03/02 09:26:58;;;;;;;18.27;12.40;;;;;;;6.45;49.19;94703.22;5103880;28;20514;-74
2022/03/02 09:29:29;;;;;;;17.03;12.63;;;;;;;5.44;51.99;94688.03;5070036;28;20439;-74
2022/03/02 09:31:57;;;;;;;13.23;10.27;;;;;;;5.43;50.96;94692.44;5100446;28;20411;-74
2022/03/02 09:34:26;;;;;;;34.80;13.60;;;;;;;5.05;51.72;94684.28;5101304;28;20439;-74
2022/03/02 09:36:53;;;;;;;22.00;13.33;;;;;;;5.90;50.47;94677.16;5086344;28;20450;-74
2022/03/02 09:39:19;;;;;;;19.43;13.13;;;;;;;6.93;48.13;94678.97;5104435;28;20426;-74
2022/03/02 09:41:54;;;;;;;15.73;12.40;;;;;;;6.79;47.37;94678.72;5103743;28;20512;-74
2022/03/02 09:44:25;;;;;;;14.33;11.17;;;;;;;6.67;46.92;94671.47;5103336;28;20213;-74
2022/03/02 09:46:56;;;;;;;17.43;13.63;;;;;;;6.72;47.61;94672.56;5086439;28;20444;-73
2022/03/02 09:49:27;;;;;;;14.43;11.17;;;;;;;5.70;49.19;94667.13;5086574;28;20763;-74
2022/03/02 09:52:02;;;;;;;27.63;15.80;;;;;;;6.30;48.55;94673.72;5104622;28;20408;-74
2022/03/02 09:54:29;;;;;;;16.77;12.93;;;;;;;5.85;50.00;94664.69;5086512;28;20537;-74
2022/03/02 09:56:56;;;;;;;17.57;12.90;;;;;;;6.22;49.68;94673.72;5103015;28;20443;-74
2022/03/02 09:59:24;;;;;;;28.47;14.50;;;;;;;6.34;49.16;94659.41;5102354;28;20434;-74
2022/03/02 10:01:50;;;;;;;19.63;14.13;;;;;;;6.31;49.48;94670.13;5084624;28;20484;-74
2022/03/02 10:04:22;;;;;;;28.73;15.77;;;;;;;6.75;48.96;94661.81;5103620;28;20427;-74
2022/03/02 10:07:26;;;;;;;26.77;13.90;;;;;;;5.65;51.56;94665.03;5119140;28;20430;-74
2022/03/02 10:09:51;;;;;;;15.83;11.63;;;;;;;6.45;49.31;94655.63;5102530;28;20435;-73
2022/03/02 10:12:19;;;;;;;19.70;15.10;;;;;;;7.02;48.64;94652.75;5107539;28;20407;-74
2022/03/02 10:14:45;;;;;;;17.57;13.40;;;;;;;6.45;48.52;94651.22;5107968;28;20455;-74
2022/03/02 10:17:11;;;;;;;20.30;13.50;;;;;;;7.13;47.18;94646.34;5089713;28;20512;-74
2022/03/02 10:19:45;;;;;;;20.73;14.17;;;;;;;6.14;49.59;94642.56;5107587;28;20214;-73
2022/03/02 10:22:40;;;;;;;20.17;14.20;;;;;;;6.28;48.09;94644.47;5107445;28;20584;-74
2022/03/02 10:25:11;;;;;;;18.97;12.87;;;;;;;6.78;46.97;94640.69;5064101;28;20446;-74
2022/03/02 10:28:04;;;;;;;23.50;15.57;;;;;;;7.05;47.22;94635.97;5090553;28;20435;-74
2022/03/02 10:30:40;;;;;;;19.90;12.07;;;;;;;6.80;46.45;94638.72;5124027;28;20423;-74
2022/03/02 10:33:26;;;;;;;16.30;13.40;;;;;;;6.10;48.73;94634.28;5108551;28;20411;-74
2022/03/02 10:36:08;;;;;;;12.73;10.23;;;;;;;6.91;47.93;94628.91;5077303;28;20437;-73
2022/03/02 10:39:01;;;;;;;19.50;14.43;;;;;;;7.21;46.47;94622.84;5108613;28;20515;-74
2022/03/02 10:41:28;;;;;;;20.17;14.10;;;;;;;6.95;46.19;94617.19;5108249;28;20450;-74
2022/03/02 10:44:05;;;;;;;18.30;14.53;;;;;;;7.60;46.07;94613.25;5107912;28;20431;-74
2022/03/02 10:46:32;;;;;;;16.37;12.93;;;;;;;7.20;44.99;94608.22;5085942;28;20966;-74
2022/03/02 10:49:11;;;;;;;11.87;7.10;;;;;;;7.08;46.23;94603.59;5089394;28;20420;-73
2022/03/02 10:51:37;;;;;;;20.50;14.50;;;;;;;7.15;45.82;94596.69;5108101;28;20434;-74
2022/03/02 10:54:05;;;;;;;21.40;12.90;;;;;;;6.51;46.58;94594.34;5107968;28;20492;-74
2022/03/02 10:56:38;;;;;;;13.97;11.20;;;;;;;6.29;46.40;94570.72;5107712;28;20434;-74
2022/03/02 10:59:06;;;;;;;18.63;10.40;;;;;;;5.67;47.86;94574.81;5108254;28;20755;-74
2022/03/02 11:01:33;;;;;;;17.00;13.47;;;;;;;6.33;47.76;94579.81;5107992;28;20969;-74
2022/03/02 11:03:58;;;;;;;21.10;13.80;;;;;;;7.76;43.90;94579.25;5107872;28;20464;-74
2022/03/02 11:06:25;;;;;;;13.20;11.33;;;;;;;6.39;45.25;94566.16;5104801;28;20450;-73
2022/03/02 11:08:54;;;;;;;15.50;11.40;;;;;;;7.57;43.54;94572.78;5107985;28;20188;-73
2022/03/02 11:11:24;;;;;;;17.60;13.67;;;;;;;8.15;43.08;94565.13;5089723;28;20411;-74
2022/03/02 11:13:51;;;;;;;16.43;12.70;;;;;;;8.11;41.42;94557.88;5107791;28;20460;-74
2022/03/02 11:16:21;;;;;;;14.17;10.00;;;;;;;7.87;42.45;94559.75;5089099;28;20506;-74
2022/03/02 11:18:52;;;;;;;12.23;10.37;;;;;;;7.59;42.42;94549.97;5107879;28;20430;-73
2022/03/02 11:21:31;;;;;;;15.83;11.37;;;;;;;7.42;42.47;94564.94;5106983;28;20462;-74
2022/03/02 11:24:05;;;;;;;15.63;12.77;;;;;;;7.53;43.03;94535.06;5106853;28;20445;-74
2022/03/02 11:26:34;;;;;;;11.97;9.40;;;;;;;7.16;43.53;94528.88;5107118;28;20888;-73
2022/03/02 11:29:12;;;;;;;19.73;13.80;;;;;;;8.76;41.42;94536.19;5107510;28;20532;-74
2022/03/02 11:31:42;;;;;;;14.57;11.23;;;;;;;8.42;40.06;94528.19;5088932;28;20418;-74